Amber, Iowa
Current Conditions -  °F | °C
As of 8:55 PM on Saturday 27 Dec 2014 (Local Time) from KMXO Reporting Station
Few Clouds Few Clouds  
Wind Chill: 12°   Ceiling: Unl
Heat Index: 23°   Visibility: 10mi
Dew Point: 19°   Wind: 10mph
Humidity: 86%   Direction: 300°WNW
Pressure: 30.17"   Gusts: NA
Location:  42.1396°N, 91.2844°W
Report Text: KMXO 280255Z AUTO 30009KT 10SM FEW014 M05/M07 A3017 RMK AO2
Loading
Personal Weather Stations






























Interactive Weather Map New forecast layout! Learn more

10-Day Weather Forecast

Advertisements
Track Severe Weather on mobile